McCarr, Kentucky
Current Conditions -  °F | °C
As of 6:55 AM on Sunday 25 Jan 2015 (Local Time) from KPBX Reporting Station
Clear Clear  
Wind Chill: 30°   Ceiling: Unl
Heat Index: 35°   Visibility: 10mi
Dew Point: 29°   Wind: 6mph
Humidity: 78%   Direction: 180°S
Pressure: 29.8"   Gusts: NA
Location:  37.61°N, 82.17°W
Report Text: KPBX 251155Z AUTO 18005KT 10SM CLR 02/M02 A2980 RMK AO2 T00181017 10023 20010
Loading
Personal Weather Stations






























Interactive Weather Map New forecast layout! Learn more

10-Day Weather Forecast

Advertisements
Track Severe Weather on mobile